createdAt,value
2022-07-28T00:01:18.566Z,101119.03
2022-07-28T00:03:49.458Z,101130.53
2022-07-28T00:06:17.894Z,101133.38
2022-07-28T00:08:45.885Z,101129.09
2022-07-28T00:11:13.877Z,101133.63
2022-07-28T00:13:42.026Z,101135.47
2022-07-28T00:16:10.207Z,101133.63
2022-07-28T00:18:38.218Z,101147.25
2022-07-28T00:21:07.809Z,101139.16
2022-07-28T00:23:39.515Z,101140.09
2022-07-28T00:26:09.091Z,101108.47
2022-07-28T00:28:37.379Z,101141.00
2022-07-28T00:31:08.405Z,101142.72
2022-07-28T00:33:40.262Z,101141.88
2022-07-28T00:36:11.588Z,101142.72
2022-07-28T00:38:44.382Z,101145.44
2022-07-28T00:41:14.238Z,101150.81
2022-07-28T00:43:44.892Z,101151.63
2022-07-28T00:46:14.078Z,101147.97
2022-07-28T00:48:45.050Z,101159.72
2022-07-28T00:51:16.476Z,101151.78
2022-07-28T00:53:45.247Z,101160.81
2022-07-28T00:56:13.953Z,101158.13
2022-07-28T00:58:42.546Z,101161.69
2022-07-28T01:01:12.225Z,101152.00
2022-07-28T01:03:42.975Z,101164.38
2022-07-28T01:06:18.223Z,101155.34
2022-07-28T01:08:59.200Z,101162.69
2022-07-28T01:11:32.189Z,101159.13
2022-07-28T01:14:20.442Z,101161.81
2022-07-28T01:16:55.207Z,101166.22
2022-07-28T01:19:36.939Z,101163.50
2022-07-28T01:22:10.651Z,101169.03
2022-07-28T01:24:52.225Z,101170.78
2022-07-28T01:27:36.971Z,101172.59
2022-07-28T01:30:11.769Z,101168.19
2022-07-28T01:32:45.267Z,101180.69
2022-07-28T01:35:17.164Z,101176.16
2022-07-28T01:37:48.445Z,101181.56
2022-07-28T01:40:25.266Z,101184.13
2022-07-28T01:42:57.616Z,101184.13
2022-07-28T01:45:27.245Z,101183.25
2022-07-28T01:48:00.743Z,101185.00
2022-07-28T01:50:31.050Z,101183.25
2022-07-28T01:53:00.137Z,101182.38
2022-07-28T01:55:29.965Z,101189.38
2022-07-28T01:57:58.587Z,101194.03
2022-07-28T02:00:29.169Z,101191.31
2022-07-28T02:03:03.774Z,101189.53
2022-07-28T02:05:33.322Z,101194.03
2022-07-28T02:08:03.862Z,101193.16
2022-07-28T02:10:32.909Z,101193.31
2022-07-28T02:13:02.987Z,101194.16
2022-07-28T02:15:32.938Z,101194.16
2022-07-28T02:18:03.911Z,101190.59
2022-07-28T02:20:32.918Z,101196.00
2022-07-28T02:23:01.026Z,101191.72
2022-07-28T02:25:30.930Z,101194.69
2022-07-28T02:28:03.237Z,101210.34
2022-07-28T02:30:35.409Z,101205.91
2022-07-28T02:33:09.492Z,101211.19
2022-07-28T02:35:45.902Z,101202.25
2022-07-28T02:38:23.963Z,101218.44
2022-07-28T02:40:57.595Z,101201.66
2022-07-28T02:43:50.310Z,101215.84
2022-07-28T02:46:20.119Z,101221.22
2022-07-28T02:48:53.774Z,101224.78
2022-07-28T02:51:24.758Z,101226.50
2022-07-28T02:53:54.696Z,101231.91
2022-07-28T02:56:23.443Z,101226.50
2022-07-28T02:58:52.841Z,101228.19
2022-07-28T03:01:22.550Z,101230.06
2022-07-28T03:03:55.412Z,101238.06
2022-07-28T03:06:26.640Z,101241.69
2022-07-28T03:08:56.931Z,101238.16
2022-07-28T03:11:24.934Z,101246.34
2022-07-28T03:13:52.865Z,101245.50
2022-07-28T03:16:21.032Z,101245.38
2022-07-28T03:18:52.438Z,101244.53
2022-07-28T03:21:20.574Z,101248.31
2022-07-28T03:23:50.836Z,101258.09
2022-07-28T03:26:26.362Z,101230.88
2022-07-28T03:28:56.677Z,101257.28
2022-07-28T03:31:26.892Z,101259.13
2022-07-28T03:33:56.857Z,101262.66
2022-07-28T03:36:30.369Z,101265.38
2022-07-28T03:39:03.098Z,101264.63
2022-07-28T03:41:32.929Z,101255.34
2022-07-28T03:44:02.705Z,101268.16
2022-07-28T03:46:30.883Z,101271.88
2022-07-28T03:49:00.431Z,101262.78
2022-07-28T03:51:29.687Z,101278.94
2022-07-28T03:53:57.669Z,101275.41
2022-07-28T03:56:26.377Z,101280.78
2022-07-28T03:58:54.306Z,101286.06
2022-07-28T04:01:22.420Z,101272.22
2022-07-28T04:03:50.478Z,101282.50
2022-07-28T04:06:19.986Z,101287.91
2022-07-28T04:08:48.164Z,101291.47
2022-07-28T04:11:16.113Z,101288.88
2022-07-28T04:13:44.089Z,101289.00
2022-07-28T04:16:12.071Z,101298.69
2022-07-28T04:18:40.192Z,101293.28
2022-07-28T04:21:08.138Z,101298.69
2022-07-28T04:23:37.565Z,101303.22
2022-07-28T04:26:05.647Z,101299.66
2022-07-28T04:28:33.645Z,101306.91
2022-07-28T04:31:01.724Z,101305.03
2022-07-28T04:33:30.543Z,101305.19
2022-07-28T04:35:58.622Z,101306.91
2022-07-28T04:38:26.554Z,101307.03
2022-07-28T04:40:56.333Z,101308.75
2022-07-28T04:43:24.685Z,101308.84
2022-07-28T04:45:54.586Z,101308.84
2022-07-28T04:48:23.761Z,101303.84
2022-07-28T04:50:52.882Z,101304.47
2022-07-28T04:53:21.474Z,101309.84
2022-07-28T04:55:51.657Z,101307.16
2022-07-28T04:58:22.669Z,101315.09
2022-07-28T05:00:51.644Z,101319.63
2022-07-28T05:03:19.949Z,101333.97
2022-07-28T05:05:54.336Z,101330.31
2022-07-28T05:08:25.348Z,101313.03
2022-07-28T05:10:55.781Z,101329.31
2022-07-28T05:13:30.264Z,101342.53
2022-07-28T05:16:01.840Z,101340.22
2022-07-28T05:18:30.081Z,101351.28
2022-07-28T05:20:58.042Z,101350.16
2022-07-28T05:23:26.400Z,101356.16
2022-07-28T05:25:54.658Z,101354.19
2022-07-28T05:28:22.618Z,101351.50
2022-07-28T05:30:52.041Z,101360.31
2022-07-28T05:33:20.039Z,101353.09
2022-07-28T05:35:53.912Z,101363.72
2022-07-28T05:38:22.282Z,101363.72
2022-07-28T05:40:50.571Z,101369.13
2022-07-28T05:43:18.859Z,101364.34
2022-07-28T05:45:47.690Z,101351.59
2022-07-28T05:48:18.973Z,101370.81
2022-07-28T05:50:47.050Z,101358.06
2022-07-28T05:53:15.048Z,101363.19
2022-07-28T05:55:59.746Z,101363.53
2022-07-28T05:58:28.966Z,101354.72
2022-07-28T06:01:00.090Z,101373.56
2022-07-28T06:03:30.657Z,101375.00
2022-07-28T06:06:14.117Z,101368.38
2022-07-28T06:08:44.668Z,101364.31
2022-07-28T06:11:22.023Z,101379.09
2022-07-28T06:13:52.232Z,101352.03
2022-07-28T06:16:22.504Z,101389.28
2022-07-28T06:18:52.341Z,101393.59
2022-07-28T06:21:20.393Z,101383.34
2022-07-28T06:23:48.452Z,101386.66
2022-07-28T06:26:16.401Z,101390.22
2022-07-28T06:28:44.338Z,101384.69
2022-07-28T06:31:12.410Z,101388.09
2022-07-28T06:33:40.409Z,101392.25
2022-07-28T06:36:09.822Z,101392.19
2022-07-28T06:38:37.758Z,101402.81
2022-07-28T06:41:05.802Z,101411.75
2022-07-28T06:43:36.826Z,101414.44
2022-07-28T06:46:06.976Z,101421.72
2022-07-28T06:48:37.689Z,101417.13
2022-07-28T06:51:06.081Z,101412.59
2022-07-28T06:53:35.651Z,101421.41
2022-07-28T06:56:05.129Z,101417.75
2022-07-28T06:58:33.356Z,101414.91
2022-07-28T07:01:05.522Z,101416.63
2022-07-28T07:03:33.938Z,101414.78
2022-07-28T07:06:01.994Z,101418.34
2022-07-28T07:08:30.090Z,101420.03
2022-07-28T07:10:59.494Z,101408.25
2022-07-28T07:13:27.697Z,101416.22
2022-07-28T07:15:55.790Z,101416.09
2022-07-28T07:18:23.873Z,101416.97
2022-07-28T07:20:52.394Z,101414.13
2022-07-28T07:23:20.440Z,101421.25
2022-07-28T07:25:48.363Z,101423.81
2022-07-28T07:28:17.756Z,101429.06
2022-07-28T07:30:45.812Z,101431.75
2022-07-28T07:33:13.903Z,101437.03
2022-07-28T07:35:41.914Z,101430.53
2022-07-28T07:38:10.024Z,101434.19
2022-07-28T07:40:38.077Z,101441.06
2022-07-28T07:43:06.361Z,101438.38
2022-07-28T07:45:35.863Z,101435.53
2022-07-28T07:48:04.772Z,101442.66
2022-07-28T07:50:32.881Z,101439.94
2022-07-28T07:53:01.050Z,101447.19
2022-07-28T07:55:34.520Z,101438.13
2022-07-28T07:58:06.312Z,101429.81
2022-07-28T08:00:36.040Z,101448.91
2022-07-28T08:03:04.152Z,101446.47
2022-07-28T08:05:39.364Z,101448.44
2022-07-28T08:08:07.362Z,101456.53
2022-07-28T08:10:35.744Z,101453.97
2022-07-28T08:13:04.681Z,101435.72
2022-07-28T08:15:33.691Z,101458.50
2022-07-28T08:18:03.409Z,101462.06
2022-07-28T08:20:31.467Z,101464.78
2022-07-28T08:22:59.579Z,101452.13
2022-07-28T08:25:27.778Z,101458.50
2022-07-28T08:27:55.723Z,101464.06
2022-07-28T08:30:27.467Z,101449.63
2022-07-28T08:33:00.099Z,101464.16
2022-07-28T08:35:33.777Z,101464.91
2022-07-28T08:38:02.684Z,101462.06
2022-07-28T08:40:32.473Z,101479.00
2022-07-28T08:43:05.013Z,101479.75
2022-07-28T08:45:37.434Z,101480.56
2022-07-28T08:48:08.861Z,101483.16
2022-07-28T08:50:39.306Z,101481.19
2022-07-28T08:53:08.131Z,101482.03
2022-07-28T08:55:37.258Z,101485.47
2022-07-28T08:58:05.951Z,101486.72
2022-07-28T09:00:34.289Z,101482.03
2022-07-28T09:03:04.626Z,101500.56
2022-07-28T09:05:34.006Z,101493.41
2022-07-28T09:08:04.356Z,101496.13
2022-07-28T09:10:32.465Z,101498.25
2022-07-28T09:13:00.437Z,101498.38
2022-07-28T09:15:28.597Z,101507.47
2022-07-28T09:17:56.724Z,101509.47
2022-07-28T09:20:25.697Z,101505.88
2022-07-28T09:23:00.909Z,101508.59
2022-07-28T09:25:31.346Z,101506.16
2022-07-28T09:28:07.444Z,101510.84
2022-07-28T09:30:37.971Z,101511.94
2022-07-28T09:33:42.127Z,101510.38
2022-07-28T09:36:16.560Z,101518.47
2022-07-28T09:38:45.858Z,101523.00
2022-07-28T09:41:18.927Z,101516.75
2022-07-28T09:43:52.525Z,101524.13
2022-07-28T09:46:25.334Z,101503.06
2022-07-28T09:48:58.398Z,101517.50
2022-07-28T09:51:29.131Z,101523.91
2022-07-28T09:54:08.770Z,101521.47
2022-07-28T09:56:38.753Z,101528.84
2022-07-28T09:59:08.584Z,101531.66
2022-07-28T10:01:52.370Z,101541.72
2022-07-28T10:04:31.642Z,101541.97
2022-07-28T10:07:07.438Z,101536.72
2022-07-28T10:09:35.503Z,101497.50
2022-07-28T10:12:21.799Z,101534.50
2022-07-28T10:14:51.991Z,101537.34
2022-07-28T10:17:28.365Z,101531.94
2022-07-28T10:19:58.538Z,101520.53
2022-07-28T10:22:33.085Z,101514.88
2022-07-28T10:25:03.364Z,101534.19
2022-07-28T10:27:33.456Z,101541.50
2022-07-28T10:30:02.726Z,101538.97
2022-07-28T10:32:35.746Z,101547.16
2022-07-28T10:35:06.330Z,101539.06
2022-07-28T10:37:39.741Z,101538.44
2022-07-28T10:40:10.876Z,101541.16
2022-07-28T10:42:41.734Z,101493.13
2022-07-28T10:45:11.430Z,101507.81
2022-07-28T10:47:39.503Z,101539.81
2022-07-28T10:50:08.912Z,101545.19
2022-07-28T10:52:47.296Z,101550.75
2022-07-28T10:55:24.411Z,101541.88
2022-07-28T10:58:13.241Z,101543.00
2022-07-28T11:00:56.015Z,101537.41
2022-07-28T11:03:40.245Z,101540.56
2022-07-28T11:06:27.134Z,101542.50
2022-07-28T11:08:55.587Z,101546.31
2022-07-28T11:11:46.588Z,101546.31
2022-07-28T11:14:37.390Z,101551.97
2022-07-28T11:17:24.060Z,101545.84
2022-07-28T11:22:43.843Z,101538.84
2022-07-28T11:25:21.853Z,101545.13
2022-07-28T11:28:05.600Z,101540.69
2022-07-28T11:30:54.884Z,101537.41
2022-07-28T11:33:25.160Z,101528.44
2022-07-28T11:36:02.192Z,101529.16
2022-07-28T11:38:30.434Z,101530.28
2022-07-28T11:40:58.462Z,101528.44
2022-07-28T11:43:37.384Z,101539.09
2022-07-28T11:46:39.914Z,101533.97
2022-07-28T11:49:25.053Z,101528.59
2022-07-28T11:52:15.219Z,101533.22
2022-07-28T11:54:51.123Z,101537.66
2022-07-28T11:57:21.365Z,101536.78
2022-07-28T11:59:53.386Z,101534.09
2022-07-28T12:02:28.325Z,101545.72
2022-07-28T12:05:05.824Z,101548.56
2022-07-28T12:07:39.554Z,101549.53
2022-07-28T12:10:54.635Z,101537.16
2022-07-28T12:13:28.485Z,101538.50
2022-07-28T12:15:56.584Z,101550.66
2022-07-28T12:18:25.952Z,101548.81
2022-07-28T12:20:54.856Z,101534.59
2022-07-28T12:23:34.947Z,101543.03
2022-07-28T12:26:07.421Z,101545.50
2022-07-28T12:28:38.245Z,101547.31
2022-07-28T12:31:13.110Z,101499.25
2022-07-28T12:33:42.549Z,101544.63
2022-07-28T12:36:10.963Z,101548.31
2022-07-28T12:38:39.028Z,101545.63
2022-07-28T12:41:15.207Z,101545.63
2022-07-28T12:43:50.706Z,101544.63
2022-07-28T12:46:22.504Z,101542.56
2022-07-28T12:48:53.725Z,101555.66
2022-07-28T12:51:35.269Z,101544.50
2022-07-28T12:54:03.846Z,101560.31
2022-07-28T12:56:31.914Z,101547.44
2022-07-28T12:59:07.254Z,101553.44
2022-07-28T13:01:51.982Z,101550.59
2022-07-28T13:04:46.497Z,101552.19
2022-07-28T13:07:16.431Z,101556.47
2022-07-28T13:09:59.953Z,101567.03
2022-07-28T13:12:31.851Z,101570.47
2022-07-28T13:15:01.362Z,101563.97
2022-07-28T13:17:31.695Z,101564.81
2022-07-28T13:20:10.151Z,101560.03
2022-07-28T13:22:38.157Z,101569.97
2022-07-28T13:25:07.114Z,101567.03
2022-07-28T13:27:36.078Z,101572.28
2022-07-28T13:30:04.906Z,101558.78
2022-07-28T13:32:34.093Z,101564.13
2022-07-28T13:35:03.120Z,101570.38
2022-07-28T13:37:32.748Z,101527.19
2022-07-28T13:40:01.742Z,101571.97
2022-07-28T13:42:30.344Z,101570.09
2022-07-28T13:44:58.337Z,101577.22
2022-07-28T13:47:27.045Z,101577.94
2022-07-28T13:50:03.782Z,101563.47
2022-07-28T13:52:35.215Z,101571.44
2022-07-28T13:55:07.240Z,101580.41
2022-07-28T13:57:36.478Z,101582.00
2022-07-28T14:00:07.696Z,101574.75
2022-07-28T14:02:36.606Z,101581.88
2022-07-28T14:05:05.585Z,101576.34
2022-07-28T14:07:35.368Z,101575.88
2022-07-28T14:10:03.596Z,101584.28
2022-07-28T14:12:37.560Z,101578.91
2022-07-28T14:15:09.800Z,101589.44
2022-07-28T14:17:44.132Z,101585.78
2022-07-28T14:20:14.654Z,101597.44
2022-07-28T14:22:44.755Z,101599.03
2022-07-28T14:25:19.736Z,101590.94
2022-07-28T14:27:50.666Z,101587.22
2022-07-28T14:30:19.354Z,101585.38
2022-07-28T14:32:47.317Z,101591.50
2022-07-28T14:35:15.880Z,101583.31
2022-07-28T14:40:33.501Z,101572.50
2022-07-28T14:43:07.823Z,101579.59
2022-07-28T14:46:01.514Z,101574.97
2022-07-28T14:48:24.366Z,101577.75
2022-07-28T14:50:52.465Z,101574.81
2022-07-28T14:53:22.277Z,101575.53
2022-07-28T14:55:50.304Z,101569.41
2022-07-28T14:58:18.344Z,101584.38
2022-07-28T15:00:46.444Z,101580.81
2022-07-28T15:03:14.516Z,101581.69
2022-07-28T15:05:42.581Z,101581.56
2022-07-28T15:08:10.633Z,101582.41
2022-07-28T15:10:40.351Z,101582.28
2022-07-28T15:13:08.342Z,101579.56
2022-07-28T15:15:39.438Z,101568.28
2022-07-28T15:18:11.521Z,101576.63
2022-07-28T15:20:40.368Z,101574.78
2022-07-28T15:23:09.493Z,101582.75
2022-07-28T15:25:37.607Z,101575.34
2022-07-28T15:28:07.106Z,101586.16
2022-07-28T15:30:35.078Z,101586.16
2022-07-28T15:33:09.505Z,101590.50
2022-07-28T15:35:57.897Z,101587.63
2022-07-28T15:38:26.026Z,101586.78
2022-07-28T15:40:53.989Z,101599.31
2022-07-28T15:43:23.841Z,101586.66
2022-07-28T15:45:52.501Z,101590.19
2022-07-28T15:48:20.736Z,101594.78
2022-07-28T15:50:49.032Z,101588.50
2022-07-28T15:53:17.412Z,101590.19
2022-07-28T15:55:50.789Z,101585.66
2022-07-28T15:58:19.702Z,101595.59
2022-07-28T16:00:49.713Z,101565.22
2022-07-28T16:03:18.339Z,101592.06
2022-07-28T16:05:49.555Z,101591.22
2022-07-28T16:08:18.634Z,101596.34
2022-07-28T16:10:52.596Z,101583.81
2022-07-28T16:13:36.245Z,101591.06
2022-07-28T16:16:08.474Z,101573.91
2022-07-28T16:18:37.677Z,101587.25
2022-07-28T16:21:06.665Z,101598.91
2022-07-28T16:23:35.117Z,101591.69
2022-07-28T16:26:05.072Z,101588.97
2022-07-28T16:28:33.146Z,101588.97
2022-07-28T16:31:01.296Z,101593.38
2022-07-28T16:33:33.846Z,101590.56
2022-07-28T16:36:02.408Z,101596.81
2022-07-28T16:38:30.566Z,101593.25
2022-07-28T16:40:58.594Z,101598.66
2022-07-28T16:43:26.622Z,101604.94
2022-07-28T16:45:54.733Z,101602.22
2022-07-28T16:48:22.802Z,101613.88
2022-07-28T16:50:53.480Z,101606.50
2022-07-28T16:53:21.466Z,101606.50
2022-07-28T16:55:50.406Z,101613.75
2022-07-28T16:58:20.041Z,101610.03
2022-07-28T17:00:48.126Z,101621.72
2022-07-28T17:03:17.094Z,101615.34
2022-07-28T17:05:45.297Z,101624.31
2022-07-28T17:08:14.854Z,101619.81
2022-07-28T17:10:42.983Z,101619.25
2022-07-28T17:13:13.077Z,101621.84
2022-07-28T17:15:41.388Z,101633.31
2022-07-28T17:18:09.624Z,101628.75
2022-07-28T17:20:41.643Z,101635.88
2022-07-28T17:23:09.849Z,101632.41
2022-07-28T17:26:20.820Z,101636.84
2022-07-28T17:28:28.553Z,101643.34
2022-07-28T17:30:56.547Z,101637.22
2022-07-28T17:33:24.893Z,101639.03
2022-07-28T17:35:55.073Z,101645.56
2022-07-28T17:38:28.267Z,101634.03
2022-07-28T17:41:03.806Z,101640.41
2022-07-28T17:43:32.881Z,101638.00
2022-07-28T17:46:01.210Z,101640.69
2022-07-28T17:48:30.967Z,101641.91
2022-07-28T17:50:58.981Z,101642.06
2022-07-28T17:53:26.988Z,101648.44
2022-07-28T17:56:01.192Z,101627.59
2022-07-28T17:58:32.270Z,101630.41
2022-07-28T18:01:10.027Z,101643.53
2022-07-28T18:03:57.044Z,101656.19
2022-07-28T18:06:30.576Z,101650.03
2022-07-28T18:09:07.197Z,101650.91
2022-07-28T18:11:56.546Z,101654.59
2022-07-28T18:14:27.763Z,101657.41
2022-07-28T18:16:56.296Z,101658.41
2022-07-28T18:19:24.309Z,101660.34
2022-07-28T18:21:52.942Z,101645.50
2022-07-28T18:24:22.430Z,101655.97
2022-07-28T18:26:51.481Z,101647.00
2022-07-28T18:29:21.037Z,101654.38
2022-07-28T18:31:52.050Z,101657.91
2022-07-28T18:34:24.650Z,101669.72
2022-07-28T18:36:53.169Z,101668.13
2022-07-28T18:39:21.270Z,101661.22
2022-07-28T18:41:49.185Z,101660.50
2022-07-28T18:44:18.350Z,101668.50
2022-07-28T18:46:47.186Z,101669.47
2022-07-28T18:49:16.833Z,101673.91
2022-07-28T18:51:45.428Z,101677.81
2022-07-28T18:54:18.512Z,101682.34
2022-07-28T18:56:49.912Z,101685.19
2022-07-28T18:59:17.933Z,101690.81
2022-07-28T19:01:46.048Z,101685.56
2022-07-28T19:04:14.356Z,101690.09
2022-07-28T19:06:44.027Z,101689.38
2022-07-28T19:09:11.955Z,101694.88
2022-07-28T19:11:45.339Z,101691.44
2022-07-28T19:14:14.494Z,101702.34
2022-07-28T19:16:42.781Z,101698.91
2022-07-28T19:19:10.780Z,101708.03
2022-07-28T19:21:43.131Z,101715.31
2022-07-28T19:24:13.990Z,101711.78
2022-07-28T19:26:43.596Z,101722.69
2022-07-28T19:29:11.907Z,101732.75
2022-07-28T19:31:41.453Z,101732.03
2022-07-28T19:34:09.873Z,101734.81
2022-07-28T19:36:38.057Z,101745.63
2022-07-28T19:39:06.021Z,101746.00
2022-07-28T19:41:35.480Z,101747.47
2022-07-28T19:44:03.433Z,101760.97
2022-07-28T19:46:31.798Z,101761.22
2022-07-28T19:48:59.878Z,101764.75
2022-07-28T19:51:28.038Z,101762.03
2022-07-28T19:53:58.606Z,101760.72
2022-07-28T19:56:31.624Z,101761.69
2022-07-28T19:59:01.238Z,101768.69
2022-07-28T20:01:29.574Z,101783.13
2022-07-28T20:04:03.333Z,101749.84
2022-07-28T20:06:42.976Z,101784.22
2022-07-28T20:09:11.569Z,101783.41
2022-07-28T20:11:40.804Z,101779.94
2022-07-28T20:14:10.198Z,101780.81
2022-07-28T20:16:38.211Z,101791.72
2022-07-28T20:19:06.235Z,101803.63
2022-07-28T20:21:38.358Z,101800.06
2022-07-28T20:24:07.883Z,101801.88
2022-07-28T20:26:35.960Z,101809.34
2022-07-28T20:29:05.926Z,101814.63
2022-07-28T20:31:36.673Z,101816.59
2022-07-28T20:34:06.867Z,101774.44
2022-07-28T20:36:35.319Z,101825.78
2022-07-28T20:39:15.735Z,101821.50
2022-07-28T20:41:51.391Z,101826.25
2022-07-28T20:44:28.652Z,101819.25
2022-07-28T20:47:00.527Z,101832.59
2022-07-28T20:49:29.250Z,101830.03
2022-07-28T20:51:57.909Z,101793.19
2022-07-28T20:54:26.156Z,101837.41
2022-07-28T20:56:54.288Z,101831.22
2022-07-28T20:59:27.464Z,101843.13
2022-07-28T21:01:56.230Z,101852.19
2022-07-28T21:04:26.434Z,101848.63
2022-07-28T21:07:01.862Z,101844.47
2022-07-28T21:09:32.108Z,101848.88
2022-07-28T21:12:00.067Z,101850.81
2022-07-28T21:14:28.138Z,101850.91
2022-07-28T21:16:56.340Z,101860.00
2022-07-28T21:19:25.891Z,101776.91
2022-07-28T21:21:53.958Z,101845.28
2022-07-28T21:24:21.987Z,101855.81
2022-07-28T21:26:51.643Z,101854.97
2022-07-28T21:32:04.930Z,101851.81
2022-07-28T21:34:35.912Z,101866.94
2022-07-28T21:37:04.669Z,101862.59
2022-07-28T21:39:32.917Z,101877.06
2022-07-28T21:42:01.174Z,101872.66
2022-07-28T21:44:29.169Z,101875.34
2022-07-28T21:46:57.213Z,101884.41
2022-07-28T21:49:28.579Z,101876.44
2022-07-28T21:51:57.913Z,101880.09
2022-07-28T21:54:26.066Z,101882.03
2022-07-28T21:56:54.019Z,101884.75
2022-07-28T21:59:21.981Z,101890.25
2022-07-28T22:01:50.047Z,101878.59
2022-07-28T22:04:18.741Z,101881.31
2022-07-28T22:06:47.066Z,101881.41
2022-07-28T22:09:16.425Z,101884.09
2022-07-28T22:11:44.590Z,101886.91
2022-07-28T22:14:12.847Z,101880.78
2022-07-28T22:16:41.163Z,101889.84
2022-07-28T22:19:11.819Z,101891.56
2022-07-28T22:21:39.915Z,101888.75
2022-07-28T22:24:08.718Z,101899.44
2022-07-28T22:26:38.144Z,101893.06
2022-07-28T22:29:06.095Z,101891.78
2022-07-28T22:31:34.137Z,101892.44
2022-07-28T22:34:02.203Z,101898.44
2022-07-28T22:36:30.157Z,101909.13
2022-07-28T22:38:58.176Z,101901.03
2022-07-28T22:41:26.137Z,101902.75
2022-07-28T22:43:55.989Z,101903.63
2022-07-28T22:46:24.027Z,101900.06
2022-07-28T22:48:52.160Z,101907.28
2022-07-28T22:51:20.249Z,101907.28
2022-07-28T22:53:48.259Z,101911.69
2022-07-28T22:56:23.067Z,101914.41
2022-07-28T22:58:51.151Z,101914.41
2022-07-28T23:01:20.561Z,101921.53
2022-07-28T23:03:48.592Z,101922.34
2022-07-28T23:06:17.239Z,101917.84
2022-07-28T23:08:45.192Z,101923.22
2022-07-28T23:11:14.617Z,101919.56
2022-07-28T23:13:42.638Z,101927.66
2022-07-28T23:16:11.707Z,101919.66
2022-07-28T23:18:41.642Z,101924.09
2022-07-28T23:21:10.489Z,101928.63
2022-07-28T23:23:38.845Z,101925.91
2022-07-28T23:26:07.206Z,101921.41
2022-07-28T23:28:36.313Z,101928.84
2022-07-28T23:31:04.851Z,101928.00
2022-07-28T23:33:55.290Z,101923.69
2022-07-28T23:36:26.854Z,101934.69
2022-07-28T23:38:56.719Z,101942.03
2022-07-28T23:41:24.889Z,101933.31
2022-07-28T23:43:53.126Z,101938.78
2022-07-28T23:46:21.166Z,101935.34
2022-07-28T23:48:50.209Z,101934.59
2022-07-28T23:51:18.254Z,101938.38
2022-07-28T23:53:48.578Z,101941.09
2022-07-28T23:56:18.736Z,101936.78
2022-07-28T23:58:46.690Z,101936.03
